sensor_id;sensor_type;location;lat;lon;timestamp;P1;durP1;ratioP1;P2;durP2;ratioP2
22628;SDS011;11481;53.694;9.910;2022-08-16T00:02:29;13.55;;;6.03;;
22628;SDS011;11481;53.694;9.910;2022-08-16T00:04:56;9.05;;;5.32;;
22628;SDS011;11481;53.694;9.910;2022-08-16T00:07:25;9.15;;;5.38;;
22628;SDS011;11481;53.694;9.910;2022-08-16T00:09:55;8.38;;;5.00;;
22628;SDS011;11481;53.694;9.910;2022-08-16T00:12:24;11.98;;;5.90;;
22628;SDS011;11481;53.694;9.910;2022-08-16T00:14:53;12.13;;;5.72;;
22628;SDS011;11481;53.694;9.910;2022-08-16T00:17:22;12.27;;;5.88;;
22628;SDS011;11481;53.694;9.910;2022-08-16T00:19:49;9.32;;;5.07;;
22628;SDS011;11481;53.694;9.910;2022-08-16T00:22:20;11.13;;;5.80;;
22628;SDS011;11481;53.694;9.910;2022-08-16T00:24:50;9.60;;;5.53;;
22628;SDS011;11481;53.694;9.910;2022-08-16T00:27:19;9.70;;;5.68;;
22628;SDS011;11481;53.694;9.910;2022-08-16T00:29:48;12.13;;;6.72;;
22628;SDS011;11481;53.694;9.910;2022-08-16T00:32:26;11.20;;;6.07;;
22628;SDS011;11481;53.694;9.910;2022-08-16T00:34:58;11.60;;;5.68;;
22628;SDS011;11481;53.694;9.910;2022-08-16T00:37:26;10.82;;;6.50;;
22628;SDS011;11481;53.694;9.910;2022-08-16T00:40:15;8.88;;;5.13;;
22628;SDS011;11481;53.694;9.910;2022-08-16T00:43:03;10.48;;;4.95;;
22628;SDS011;11481;53.694;9.910;2022-08-16T00:48:26;11.02;;;4.90;;
22628;SDS011;11481;53.694;9.910;2022-08-16T00:50:57;16.05;;;5.75;;
22628;SDS011;11481;53.694;9.910;2022-08-16T00:53:24;8.80;;;4.95;;
22628;SDS011;11481;53.694;9.910;2022-08-16T00:55:56;10.45;;;5.82;;
22628;SDS011;11481;53.694;9.910;2022-08-16T00:58:30;8.50;;;5.57;;
22628;SDS011;11481;53.694;9.910;2022-08-16T01:01:00;7.85;;;4.78;;
22628;SDS011;11481;53.694;9.910;2022-08-16T01:03:34;12.18;;;5.70;;
22628;SDS011;11481;53.694;9.910;2022-08-16T01:06:02;10.50;;;5.97;;
22628;SDS011;11481;53.694;9.910;2022-08-16T01:08:50;9.57;;;5.57;;
22628;SDS011;11481;53.694;9.910;2022-08-16T01:11:20;9.93;;;5.40;;
22628;SDS011;11481;53.694;9.910;2022-08-16T01:13:52;10.05;;;5.28;;
22628;SDS011;11481;53.694;9.910;2022-08-16T01:16:26;8.98;;;5.80;;
22628;SDS011;11481;53.694;9.910;2022-08-16T01:18:56;9.70;;;5.82;;
22628;SDS011;11481;53.694;9.910;2022-08-16T01:21:30;13.57;;;6.78;;
22628;SDS011;11481;53.694;9.910;2022-08-16T01:27:29;10.63;;;5.90;;
22628;SDS011;11481;53.694;9.910;2022-08-16T01:30:34;10.35;;;5.70;;
22628;SDS011;11481;53.694;9.910;2022-08-16T01:33:15;12.02;;;6.18;;
22628;SDS011;11481;53.694;9.910;2022-08-16T01:35:46;10.38;;;6.10;;
22628;SDS011;11481;53.694;9.910;2022-08-16T01:38:38;10.57;;;5.90;;
22628;SDS011;11481;53.694;9.910;2022-08-16T01:41:23;11.13;;;5.32;;
22628;SDS011;11481;53.694;9.910;2022-08-16T01:43:55;10.10;;;5.65;;
22628;SDS011;11481;53.694;9.910;2022-08-16T01:46:37;13.43;;;5.88;;
22628;SDS011;11481;53.694;9.910;2022-08-16T01:49:09;8.07;;;5.32;;
22628;SDS011;11481;53.694;9.910;2022-08-16T01:51:44;7.32;;;4.85;;
22628;SDS011;11481;53.694;9.910;2022-08-16T01:54:15;9.98;;;5.82;;
22628;SDS011;11481;53.694;9.910;2022-08-16T01:56:55;8.07;;;5.18;;
22628;SDS011;11481;53.694;9.910;2022-08-16T01:59:23;11.48;;;5.65;;
22628;SDS011;11481;53.694;9.910;2022-08-16T02:01:50;8.60;;;5.30;;
22628;SDS011;11481;53.694;9.910;2022-08-16T02:04:26;9.25;;;5.53;;
22628;SDS011;11481;53.694;9.910;2022-08-16T02:07:13;11.20;;;6.05;;
22628;SDS011;11481;53.694;9.910;2022-08-16T02:09:43;10.55;;;5.35;;
22628;SDS011;11481;53.694;9.910;2022-08-16T02:12:24;10.77;;;5.63;;
22628;SDS011;11481;53.694;9.910;2022-08-16T02:15:13;9.70;;;5.43;;
22628;SDS011;11481;53.694;9.910;2022-08-16T02:17:41;9.95;;;5.32;;
22628;SDS011;11481;53.694;9.910;2022-08-16T02:20:09;9.43;;;5.32;;
22628;SDS011;11481;53.694;9.910;2022-08-16T02:22:37;9.50;;;5.43;;
22628;SDS011;11481;53.694;9.910;2022-08-16T02:25:05;10.60;;;5.43;;
22628;SDS011;11481;53.694;9.910;2022-08-16T02:27:36;8.68;;;5.28;;
22628;SDS011;11481;53.694;9.910;2022-08-16T02:30:07;10.27;;;5.47;;
22628;SDS011;11481;53.694;9.910;2022-08-16T02:33:03;9.25;;;4.90;;
22628;SDS011;11481;53.694;9.910;2022-08-16T02:35:32;9.52;;;5.55;;
22628;SDS011;11481;53.694;9.910;2022-08-16T02:38:19;9.75;;;5.03;;
22628;SDS011;11481;53.694;9.910;2022-08-16T02:40:46;11.15;;;6.00;;
22628;SDS011;11481;53.694;9.910;2022-08-16T02:43:13;10.13;;;5.85;;
22628;SDS011;11481;53.694;9.910;2022-08-16T02:45:41;11.35;;;5.68;;
22628;SDS011;11481;53.694;9.910;2022-08-16T02:48:08;11.23;;;6.22;;
22628;SDS011;11481;53.694;9.910;2022-08-16T02:50:56;9.80;;;5.75;;
22628;SDS011;11481;53.694;9.910;2022-08-16T02:53:34;10.30;;;5.57;;
22628;SDS011;11481;53.694;9.910;2022-08-16T02:56:03;12.02;;;5.70;;
22628;SDS011;11481;53.694;9.910;2022-08-16T02:58:35;9.25;;;5.28;;
22628;SDS011;11481;53.694;9.910;2022-08-16T03:01:01;10.38;;;5.68;;
22628;SDS011;11481;53.694;9.910;2022-08-16T03:03:29;9.25;;;5.72;;
22628;SDS011;11481;53.694;9.910;2022-08-16T03:06:16;10.80;;;6.07;;
22628;SDS011;11481;53.694;9.910;2022-08-16T03:09:06;11.23;;;6.22;;
22628;SDS011;11481;53.694;9.910;2022-08-16T03:11:39;12.45;;;6.45;;
22628;SDS011;11481;53.694;9.910;2022-08-16T03:14:05;10.88;;;6.10;;
22628;SDS011;11481;53.694;9.910;2022-08-16T03:16:33;11.05;;;6.38;;
22628;SDS011;11481;53.694;9.910;2022-08-16T03:19:20;11.85;;;6.75;;
22628;SDS011;11481;53.694;9.910;2022-08-16T03:21:47;11.55;;;6.68;;
22628;SDS011;11481;53.694;9.910;2022-08-16T03:24:17;14.10;;;7.22;;
22628;SDS011;11481;53.694;9.910;2022-08-16T03:26:58;12.25;;;6.97;;
22628;SDS011;11481;53.694;9.910;2022-08-16T03:29:29;12.65;;;7.22;;
22628;SDS011;11481;53.694;9.910;2022-08-16T03:31:58;11.93;;;6.82;;
22628;SDS011;11481;53.694;9.910;2022-08-16T03:34:27;12.48;;;6.78;;
22628;SDS011;11481;53.694;9.910;2022-08-16T03:36:55;11.88;;;6.43;;
22628;SDS011;11481;53.694;9.910;2022-08-16T03:39:22;14.63;;;6.70;;
22628;SDS011;11481;53.694;9.910;2022-08-16T03:41:49;11.38;;;6.32;;
22628;SDS011;11481;53.694;9.910;2022-08-16T03:44:25;12.52;;;6.97;;
22628;SDS011;11481;53.694;9.910;2022-08-16T03:47:10;13.95;;;7.10;;
22628;SDS011;11481;53.694;9.910;2022-08-16T03:49:36;12.75;;;7.43;;
22628;SDS011;11481;53.694;9.910;2022-08-16T03:52:04;13.00;;;7.10;;
22628;SDS011;11481;53.694;9.910;2022-08-16T03:54:30;14.25;;;7.25;;
22628;SDS011;11481;53.694;9.910;2022-08-16T03:57:00;15.60;;;9.25;;
22628;SDS011;11481;53.694;9.910;2022-08-16T03:59:30;11.05;;;6.25;;
22628;SDS011;11481;53.694;9.910;2022-08-16T04:01:57;12.95;;;7.68;;
22628;SDS011;11481;53.694;9.910;2022-08-16T04:04:26;11.90;;;6.45;;
22628;SDS011;11481;53.694;9.910;2022-08-16T04:06:59;14.13;;;7.20;;
22628;SDS011;11481;53.694;9.910;2022-08-16T04:09:28;13.30;;;7.20;;
22628;SDS011;11481;53.694;9.910;2022-08-16T04:12:01;13.50;;;6.78;;
22628;SDS011;11481;53.694;9.910;2022-08-16T04:14:36;13.13;;;6.88;;
22628;SDS011;11481;53.694;9.910;2022-08-16T04:17:12;13.30;;;7.88;;
22628;SDS011;11481;53.694;9.910;2022-08-16T04:19:40;12.20;;;6.97;;
22628;SDS011;11481;53.694;9.910;2022-08-16T04:22:10;16.70;;;7.70;;
22628;SDS011;11481;53.694;9.910;2022-08-16T04:24:37;13.88;;;7.32;;
22628;SDS011;11481;53.694;9.910;2022-08-16T04:27:05;16.83;;;8.50;;
22628;SDS011;11481;53.694;9.910;2022-08-16T04:29:34;14.77;;;7.18;;
22628;SDS011;11481;53.694;9.910;2022-08-16T04:32:11;15.07;;;8.30;;
22628;SDS011;11481;53.694;9.910;2022-08-16T04:34:39;14.70;;;8.00;;
22628;SDS011;11481;53.694;9.910;2022-08-16T04:37:06;13.52;;;7.18;;
22628;SDS011;11481;53.694;9.910;2022-08-16T04:39:33;19.25;;;7.70;;
22628;SDS011;11481;53.694;9.910;2022-08-16T04:42:12;15.30;;;8.27;;
22628;SDS011;11481;53.694;9.910;2022-08-16T04:44:39;13.98;;;7.18;;
22628;SDS011;11481;53.694;9.910;2022-08-16T04:47:20;13.25;;;7.50;;
22628;SDS011;11481;53.694;9.910;2022-08-16T04:49:49;15.88;;;8.48;;
22628;SDS011;11481;53.694;9.910;2022-08-16T04:52:18;15.13;;;7.38;;
22628;SDS011;11481;53.694;9.910;2022-08-16T04:55:01;13.85;;;7.03;;
22628;SDS011;11481;53.694;9.910;2022-08-16T04:57:31;13.60;;;7.30;;
22628;SDS011;11481;53.694;9.910;2022-08-16T04:59:57;13.73;;;7.93;;
22628;SDS011;11481;53.694;9.910;2022-08-16T05:02:44;13.10;;;6.28;;
22628;SDS011;11481;53.694;9.910;2022-08-16T05:05:20;15.48;;;8.02;;
22628;SDS011;11481;53.694;9.910;2022-08-16T05:07:47;14.30;;;8.10;;
22628;SDS011;11481;53.694;9.910;2022-08-16T05:10:25;13.60;;;7.40;;
22628;SDS011;11481;53.694;9.910;2022-08-16T05:12:53;16.02;;;8.27;;
22628;SDS011;11481;53.694;9.910;2022-08-16T05:15:21;11.18;;;6.93;;
22628;SDS011;11481;53.694;9.910;2022-08-16T05:17:49;13.52;;;7.15;;
22628;SDS011;11481;53.694;9.910;2022-08-16T05:23:12;13.93;;;7.53;;
22628;SDS011;11481;53.694;9.910;2022-08-16T05:25:40;14.50;;;8.40;;
22628;SDS011;11481;53.694;9.910;2022-08-16T05:28:14;14.57;;;7.45;;
22628;SDS011;11481;53.694;9.910;2022-08-16T05:30:41;17.17;;;8.73;;
22628;SDS011;11481;53.694;9.910;2022-08-16T05:33:08;14.15;;;7.35;;
22628;SDS011;11481;53.694;9.910;2022-08-16T05:36:10;14.38;;;7.57;;
22628;SDS011;11481;53.694;9.910;2022-08-16T05:38:39;15.85;;;7.72;;
22628;SDS011;11481;53.694;9.910;2022-08-16T05:41:06;16.55;;;9.30;;
22628;SDS011;11481;53.694;9.910;2022-08-16T05:50:26;16.00;;;8.45;;
22628;SDS011;11481;53.694;9.910;2022-08-16T06:08:27;17.30;;;9.77;;
22628;SDS011;11481;53.694;9.910;2022-08-16T06:11:07;17.98;;;9.05;;
22628;SDS011;11481;53.694;9.910;2022-08-16T06:13:44;19.73;;;8.38;;
22628;SDS011;11481;53.694;9.910;2022-08-16T06:16:12;16.85;;;8.55;;
22628;SDS011;11481;53.694;9.910;2022-08-16T06:18:43;19.20;;;9.48;;
22628;SDS011;11481;53.694;9.910;2022-08-16T06:21:11;21.80;;;9.70;;
22628;SDS011;11481;53.694;9.910;2022-08-16T06:23:48;17.10;;;9.57;;
22628;SDS011;11481;53.694;9.910;2022-08-16T06:26:19;20.08;;;10.13;;
22628;SDS011;11481;53.694;9.910;2022-08-16T06:28:46;17.55;;;9.40;;
22628;SDS011;11481;53.694;9.910;2022-08-16T06:31:14;17.80;;;9.55;;
22628;SDS011;11481;53.694;9.910;2022-08-16T06:33:49;14.95;;;8.45;;
22628;SDS011;11481;53.694;9.910;2022-08-16T06:36:17;18.33;;;9.55;;
22628;SDS011;11481;53.694;9.910;2022-08-16T06:38:47;13.05;;;7.40;;
22628;SDS011;11481;53.694;9.910;2022-08-16T06:41:22;15.50;;;7.63;;
22628;SDS011;11481;53.694;9.910;2022-08-16T06:43:52;16.13;;;8.68;;
22628;SDS011;11481;53.694;9.910;2022-08-16T06:46:24;19.63;;;9.88;;
22628;SDS011;11481;53.694;9.910;2022-08-16T06:48:57;19.52;;;8.82;;
22628;SDS011;11481;53.694;9.910;2022-08-16T06:51:23;16.35;;;8.27;;
22628;SDS011;11481;53.694;9.910;2022-08-16T06:54:10;18.48;;;8.45;;
22628;SDS011;11481;53.694;9.910;2022-08-16T06:56:39;17.75;;;10.02;;
22628;SDS011;11481;53.694;9.910;2022-08-16T06:59:07;17.27;;;8.98;;
22628;SDS011;11481;53.694;9.910;2022-08-16T07:01:35;16.65;;;8.80;;
22628;SDS011;11481;53.694;9.910;2022-08-16T07:04:16;17.90;;;9.38;;
22628;SDS011;11481;53.694;9.910;2022-08-16T07:07:02;17.75;;;7.78;;
22628;SDS011;11481;53.694;9.910;2022-08-16T07:09:31;14.93;;;7.78;;
22628;SDS011;11481;53.694;9.910;2022-08-16T07:11:57;19.73;;;8.27;;
22628;SDS011;11481;53.694;9.910;2022-08-16T07:14:31;12.75;;;7.47;;
22628;SDS011;11481;53.694;9.910;2022-08-16T07:17:00;12.07;;;7.45;;
22628;SDS011;11481;53.694;9.910;2022-08-16T07:19:27;13.93;;;7.15;;
22628;SDS011;11481;53.694;9.910;2022-08-16T07:22:18;14.13;;;7.32;;
22628;SDS011;11481;53.694;9.910;2022-08-16T07:25:06;14.80;;;7.35;;
22628;SDS011;11481;53.694;9.910;2022-08-16T07:27:37;12.10;;;6.85;;
22628;SDS011;11481;53.694;9.910;2022-08-16T07:30:06;18.05;;;7.53;;
22628;SDS011;11481;53.694;9.910;2022-08-16T07:32:56;15.18;;;8.18;;
22628;SDS011;11481;53.694;9.910;2022-08-16T07:35:23;11.57;;;6.43;;
22628;SDS011;11481;53.694;9.910;2022-08-16T07:37:50;13.77;;;7.35;;
22628;SDS011;11481;53.694;9.910;2022-08-16T07:40:17;13.07;;;7.30;;
22628;SDS011;11481;53.694;9.910;2022-08-16T07:42:50;17.17;;;7.93;;
22628;SDS011;11481;53.694;9.910;2022-08-16T07:45:17;11.95;;;7.03;;
22628;SDS011;11481;53.694;9.910;2022-08-16T07:47:44;11.27;;;5.55;;
22628;SDS011;11481;53.694;9.910;2022-08-16T07:50:16;13.20;;;6.72;;
22628;SDS011;11481;53.694;9.910;2022-08-16T07:53:03;13.90;;;6.75;;
22628;SDS011;11481;53.694;9.910;2022-08-16T07:55:30;10.32;;;6.35;;
22628;SDS011;11481;53.694;9.910;2022-08-16T07:58:13;12.18;;;5.57;;
22628;SDS011;11481;53.694;9.910;2022-08-16T08:01:00;10.90;;;6.53;;
22628;SDS011;11481;53.694;9.910;2022-08-16T08:03:36;9.95;;;5.95;;
22628;SDS011;11481;53.694;9.910;2022-08-16T08:06:06;11.30;;;6.47;;
22628;SDS011;11481;53.694;9.910;2022-08-16T08:08:37;11.40;;;5.38;;
22628;SDS011;11481;53.694;9.910;2022-08-16T08:11:17;9.32;;;5.80;;
22628;SDS011;11481;53.694;9.910;2022-08-16T08:13:47;9.80;;;5.85;;
22628;SDS011;11481;53.694;9.910;2022-08-16T08:16:16;8.82;;;5.05;;
22628;SDS011;11481;53.694;9.910;2022-08-16T08:18:45;9.00;;;5.03;;
22628;SDS011;11481;53.694;9.910;2022-08-16T08:21:25;9.85;;;4.95;;
22628;SDS011;11481;53.694;9.910;2022-08-16T08:24:12;9.73;;;5.97;;
22628;SDS011;11481;53.694;9.910;2022-08-16T08:26:40;9.15;;;5.43;;
22628;SDS011;11481;53.694;9.910;2022-08-16T08:29:08;11.20;;;5.00;;
22628;SDS011;11481;53.694;9.910;2022-08-16T08:31:37;12.23;;;5.22;;
22628;SDS011;11481;53.694;9.910;2022-08-16T08:34:07;10.10;;;5.50;;
22628;SDS011;11481;53.694;9.910;2022-08-16T08:36:34;11.48;;;5.93;;
22628;SDS011;11481;53.694;9.910;2022-08-16T08:39:05;13.43;;;6.05;;
22628;SDS011;11481;53.694;9.910;2022-08-16T08:41:38;11.07;;;5.80;;
22628;SDS011;11481;53.694;9.910;2022-08-16T08:44:07;10.48;;;5.88;;
22628;SDS011;11481;53.694;9.910;2022-08-16T08:46:54;9.70;;;5.30;;
22628;SDS011;11481;53.694;9.910;2022-08-16T08:49:27;7.43;;;4.43;;
22628;SDS011;11481;53.694;9.910;2022-08-16T08:52:17;8.77;;;5.10;;
22628;SDS011;11481;53.694;9.910;2022-08-16T08:55:00;6.97;;;4.55;;
22628;SDS011;11481;53.694;9.910;2022-08-16T08:57:36;9.77;;;5.28;;
22628;SDS011;11481;53.694;9.910;2022-08-16T09:00:08;6.93;;;4.43;;
22628;SDS011;11481;53.694;9.910;2022-08-16T09:02:46;9.45;;;5.40;;
22628;SDS011;11481;53.694;9.910;2022-08-16T09:05:18;8.73;;;5.03;;
22628;SDS011;11481;53.694;9.910;2022-08-16T09:07:47;7.65;;;5.07;;
22628;SDS011;11481;53.694;9.910;2022-08-16T09:10:26;8.70;;;4.75;;
22628;SDS011;11481;53.694;9.910;2022-08-16T09:12:55;8.98;;;6.07;;
22628;SDS011;11481;53.694;9.910;2022-08-16T09:15:22;9.20;;;5.35;;
22628;SDS011;11481;53.694;9.910;2022-08-16T09:17:49;10.60;;;5.75;;
22628;SDS011;11481;53.694;9.910;2022-08-16T09:20:20;9.25;;;4.85;;
22628;SDS011;11481;53.694;9.910;2022-08-16T09:22:50;8.10;;;5.07;;
22628;SDS011;11481;53.694;9.910;2022-08-16T09:25:19;10.25;;;5.50;;
22628;SDS011;11481;53.694;9.910;2022-08-16T09:27:59;7.53;;;4.93;;
22628;SDS011;11481;53.694;9.910;2022-08-16T09:30:34;8.73;;;5.03;;
22628;SDS011;11481;53.694;9.910;2022-08-16T09:33:10;8.57;;;5.15;;
22628;SDS011;11481;53.694;9.910;2022-08-16T09:35:43;10.77;;;4.88;;
22628;SDS011;11481;53.694;9.910;2022-08-16T09:38:18;7.72;;;4.70;;
22628;SDS011;11481;53.694;9.910;2022-08-16T09:40:58;7.38;;;4.93;;
22628;SDS011;11481;53.694;9.910;2022-08-16T09:43:26;6.72;;;4.32;;
22628;SDS011;11481;53.694;9.910;2022-08-16T09:46:13;8.57;;;4.38;;
22628;SDS011;11481;53.694;9.910;2022-08-16T09:49:00;8.23;;;5.10;;
22628;SDS011;11481;53.694;9.910;2022-08-16T09:51:29;6.15;;;4.43;;
22628;SDS011;11481;53.694;9.910;2022-08-16T09:54:02;6.28;;;4.20;;
22628;SDS011;11481;53.694;9.910;2022-08-16T09:56:30;5.95;;;4.03;;
22628;SDS011;11481;53.694;9.910;2022-08-16T09:59:00;6.43;;;4.32;;
22628;SDS011;11481;53.694;9.910;2022-08-16T10:01:34;5.50;;;3.85;;
22628;SDS011;11481;53.694;9.910;2022-08-16T10:04:02;8.30;;;4.28;;
22628;SDS011;11481;53.694;9.910;2022-08-16T10:06:50;5.88;;;4.05;;
22628;SDS011;11481;53.694;9.910;2022-08-16T10:09:23;7.97;;;4.05;;
22628;SDS011;11481;53.694;9.910;2022-08-16T10:11:50;6.97;;;4.32;;
22628;SDS011;11481;53.694;9.910;2022-08-16T10:14:45;9.00;;;4.68;;
22628;SDS011;11481;53.694;9.910;2022-08-16T10:17:11;7.25;;;4.38;;
22628;SDS011;11481;53.694;9.910;2022-08-16T10:19:39;6.20;;;4.30;;
22628;SDS011;11481;53.694;9.910;2022-08-16T10:22:08;7.35;;;4.75;;
22628;SDS011;11481;53.694;9.910;2022-08-16T10:24:38;6.57;;;4.30;;
22628;SDS011;11481;53.694;9.910;2022-08-16T10:27:21;7.30;;;5.00;;
22628;SDS011;11481;53.694;9.910;2022-08-16T10:29:52;6.80;;;4.72;;
22628;SDS011;11481;53.694;9.910;2022-08-16T10:32:27;8.27;;;5.03;;
22628;SDS011;11481;53.694;9.910;2022-08-16T10:34:56;16.42;;;5.35;;
22628;SDS011;11481;53.694;9.910;2022-08-16T10:37:22;8.55;;;4.97;;
22628;SDS011;11481;53.694;9.910;2022-08-16T10:40:06;8.60;;;5.75;;
22628;SDS011;11481;53.694;9.910;2022-08-16T10:42:54;9.25;;;5.05;;
22628;SDS011;11481;53.694;9.910;2022-08-16T10:45:22;12.55;;;5.65;;
22628;SDS011;11481;53.694;9.910;2022-08-16T10:47:50;5.65;;;4.70;;
22628;SDS011;11481;53.694;9.910;2022-08-16T10:50:28;7.38;;;4.88;;
22628;SDS011;11481;53.694;9.910;2022-08-16T10:52:56;7.75;;;4.68;;
22628;SDS011;11481;53.694;9.910;2022-08-16T10:55:24;8.02;;;5.40;;
22628;SDS011;11481;53.694;9.910;2022-08-16T10:58:12;8.68;;;4.78;;
22628;SDS011;11481;53.694;9.910;2022-08-16T11:00:42;7.93;;;4.78;;
22628;SDS011;11481;53.694;9.910;2022-08-16T11:03:11;8.00;;;4.70;;
22628;SDS011;11481;53.694;9.910;2022-08-16T11:05:59;9.48;;;4.82;;
22628;SDS011;11481;53.694;9.910;2022-08-16T11:08:31;7.65;;;5.00;;
22628;SDS011;11481;53.694;9.910;2022-08-16T11:11:03;8.15;;;5.03;;
22628;SDS011;11481;53.694;9.910;2022-08-16T11:13:43;7.25;;;4.85;;
22628;SDS011;11481;53.694;9.910;2022-08-16T11:16:31;7.10;;;4.75;;
22628;SDS011;11481;53.694;9.910;2022-08-16T11:19:21;6.25;;;4.13;;
22628;SDS011;11481;53.694;9.910;2022-08-16T11:21:48;6.60;;;4.57;;
22628;SDS011;11481;53.694;9.910;2022-08-16T11:24:35;7.78;;;4.07;;
22628;SDS011;11481;53.694;9.910;2022-08-16T11:27:11;7.07;;;4.35;;
22628;SDS011;11481;53.694;9.910;2022-08-16T11:29:50;7.80;;;5.35;;
22628;SDS011;11481;53.694;9.910;2022-08-16T11:32:21;8.52;;;5.32;;
22628;SDS011;11481;53.694;9.910;2022-08-16T11:34:59;6.65;;;4.75;;
22628;SDS011;11481;53.694;9.910;2022-08-16T11:37:41;7.90;;;4.40;;
22628;SDS011;11481;53.694;9.910;2022-08-16T11:40:37;6.80;;;4.95;;
22628;SDS011;11481;53.694;9.910;2022-08-16T11:43:09;8.48;;;4.80;;
22628;SDS011;11481;53.694;9.910;2022-08-16T11:45:41;7.05;;;4.63;;
22628;SDS011;11481;53.694;9.910;2022-08-16T11:48:19;8.65;;;4.93;;
22628;SDS011;11481;53.694;9.910;2022-08-16T11:50:47;12.88;;;5.40;;
22628;SDS011;11481;53.694;9.910;2022-08-16T11:53:13;6.70;;;4.70;;
22628;SDS011;11481;53.694;9.910;2022-08-16T11:55:41;7.07;;;4.60;;
22628;SDS011;11481;53.694;9.910;2022-08-16T11:58:09;8.50;;;5.03;;
22628;SDS011;11481;53.694;9.910;2022-08-16T12:00:37;9.43;;;5.20;;
22628;SDS011;11481;53.694;9.910;2022-08-16T12:03:17;8.48;;;5.50;;
22628;SDS011;11481;53.694;9.910;2022-08-16T12:06:10;7.50;;;4.93;;
22628;SDS011;11481;53.694;9.910;2022-08-16T12:08:55;7.47;;;4.72;;
22628;SDS011;11481;53.694;9.910;2022-08-16T12:11:26;8.00;;;4.65;;
22628;SDS011;11481;53.694;9.910;2022-08-16T12:13:57;6.57;;;4.20;;
22628;SDS011;11481;53.694;9.910;2022-08-16T12:16:25;9.88;;;5.32;;
22628;SDS011;11481;53.694;9.910;2022-08-16T12:18:59;13.80;;;5.32;;
22628;SDS011;11481;53.694;9.910;2022-08-16T12:21:39;7.20;;;5.35;;
22628;SDS011;11481;53.694;9.910;2022-08-16T12:24:24;7.75;;;4.85;;
22628;SDS011;11481;53.694;9.910;2022-08-16T12:26:54;9.10;;;5.50;;
22628;SDS011;11481;53.694;9.910;2022-08-16T12:29:22;8.85;;;5.50;;
22628;SDS011;11481;53.694;9.910;2022-08-16T12:31:54;9.50;;;5.28;;
22628;SDS011;11481;53.694;9.910;2022-08-16T12:34:37;8.70;;;4.90;;
22628;SDS011;11481;53.694;9.910;2022-08-16T12:37:16;6.20;;;4.07;;
22628;SDS011;11481;53.694;9.910;2022-08-16T12:39:43;5.65;;;3.67;;
22628;SDS011;11481;53.694;9.910;2022-08-16T12:42:16;7.10;;;4.57;;
22628;SDS011;11481;53.694;9.910;2022-08-16T12:44:45;6.35;;;4.63;;
22628;SDS011;11481;53.694;9.910;2022-08-16T12:47:12;6.53;;;4.68;;
22628;SDS011;11481;53.694;9.910;2022-08-16T12:49:57;8.13;;;4.70;;
22628;SDS011;11481;53.694;9.910;2022-08-16T12:52:25;9.48;;;4.43;;
22628;SDS011;11481;53.694;9.910;2022-08-16T12:54:59;7.85;;;4.57;;
22628;SDS011;11481;53.694;9.910;2022-08-16T12:57:28;12.20;;;5.05;;
22628;SDS011;11481;53.694;9.910;2022-08-16T13:00:04;8.38;;;5.25;;
22628;SDS011;11481;53.694;9.910;2022-08-16T13:02:33;8.40;;;5.25;;
22628;SDS011;11481;53.694;9.910;2022-08-16T13:05:02;6.18;;;4.18;;
22628;SDS011;11481;53.694;9.910;2022-08-16T13:07:32;10.10;;;4.70;;
22628;SDS011;11481;53.694;9.910;2022-08-16T13:10:08;7.05;;;4.13;;
22628;SDS011;11481;53.694;9.910;2022-08-16T13:13:02;8.68;;;4.85;;
22628;SDS011;11481;53.694;9.910;2022-08-16T13:15:30;7.18;;;5.00;;
22628;SDS011;11481;53.694;9.910;2022-08-16T13:18:17;6.30;;;3.95;;
22628;SDS011;11481;53.694;9.910;2022-08-16T13:20:52;6.00;;;3.90;;
22628;SDS011;11481;53.694;9.910;2022-08-16T13:23:19;7.45;;;4.45;;
22628;SDS011;11481;53.694;9.910;2022-08-16T13:25:50;6.97;;;4.07;;
22628;SDS011;11481;53.694;9.910;2022-08-16T13:28:20;8.10;;;4.25;;
22628;SDS011;11481;53.694;9.910;2022-08-16T13:30:49;6.05;;;4.45;;
22628;SDS011;11481;53.694;9.910;2022-08-16T13:33:19;7.03;;;4.45;;
22628;SDS011;11481;53.694;9.910;2022-08-16T13:35:55;6.85;;;3.72;;
22628;SDS011;11481;53.694;9.910;2022-08-16T13:38:23;8.73;;;4.45;;
22628;SDS011;11481;53.694;9.910;2022-08-16T13:40:54;10.45;;;4.43;;
22628;SDS011;11481;53.694;9.910;2022-08-16T13:43:25;7.05;;;4.70;;
22628;SDS011;11481;53.694;9.910;2022-08-16T13:45:58;7.80;;;4.78;;
22628;SDS011;11481;53.694;9.910;2022-08-16T13:48:29;9.95;;;5.40;;
22628;SDS011;11481;53.694;9.910;2022-08-16T13:51:09;11.02;;;4.85;;
22628;SDS011;11481;53.694;9.910;2022-08-16T13:53:42;6.63;;;4.10;;
22628;SDS011;11481;53.694;9.910;2022-08-16T13:56:28;6.30;;;4.60;;
22628;SDS011;11481;53.694;9.910;2022-08-16T13:59:03;6.88;;;4.05;;
22628;SDS011;11481;53.694;9.910;2022-08-16T14:01:46;5.22;;;4.03;;
22628;SDS011;11481;53.694;9.910;2022-08-16T14:04:22;8.10;;;3.97;;
22628;SDS011;11481;53.694;9.910;2022-08-16T14:06:52;7.57;;;4.47;;
22628;SDS011;11481;53.694;9.910;2022-08-16T14:09:19;9.27;;;4.47;;
22628;SDS011;11481;53.694;9.910;2022-08-16T14:11:46;6.45;;;4.00;;
22628;SDS011;11481;53.694;9.910;2022-08-16T14:14:18;6.93;;;4.45;;
22628;SDS011;11481;53.694;9.910;2022-08-16T14:16:54;7.00;;;4.10;;
22628;SDS011;11481;53.694;9.910;2022-08-16T14:19:26;7.35;;;4.00;;
22628;SDS011;11481;53.694;9.910;2022-08-16T14:21:55;5.93;;;3.97;;
22628;SDS011;11481;53.694;9.910;2022-08-16T14:24:40;8.82;;;4.43;;
22628;SDS011;11481;53.694;9.910;2022-08-16T14:27:12;7.70;;;3.67;;
22628;SDS011;11481;53.694;9.910;2022-08-16T14:29:45;5.78;;;3.47;;
22628;SDS011;11481;53.694;9.910;2022-08-16T14:32:15;6.72;;;3.95;;
22628;SDS011;11481;53.694;9.910;2022-08-16T14:35:00;5.45;;;3.58;;
22628;SDS011;11481;53.694;9.910;2022-08-16T14:37:32;7.57;;;4.07;;
22628;SDS011;11481;53.694;9.910;2022-08-16T14:39:59;5.78;;;3.85;;
22628;SDS011;11481;53.694;9.910;2022-08-16T14:42:28;7.55;;;4.22;;
22628;SDS011;11481;53.694;9.910;2022-08-16T14:44:55;5.38;;;3.58;;
22628;SDS011;11481;53.694;9.910;2022-08-16T14:47:22;5.53;;;4.00;;
22628;SDS011;11481;53.694;9.910;2022-08-16T14:49:48;6.10;;;3.83;;
22628;SDS011;11481;53.694;9.910;2022-08-16T14:52:19;4.80;;;3.83;;
22628;SDS011;11481;53.694;9.910;2022-08-16T14:55:07;7.28;;;4.03;;
22628;SDS011;11481;53.694;9.910;2022-08-16T14:57:37;6.50;;;4.13;;
22628;SDS011;11481;53.694;9.910;2022-08-16T15:00:07;5.78;;;4.07;;
22628;SDS011;11481;53.694;9.910;2022-08-16T15:02:37;6.20;;;4.30;;
22628;SDS011;11481;53.694;9.910;2022-08-16T15:05:11;7.10;;;4.07;;
22628;SDS011;11481;53.694;9.910;2022-08-16T15:07:39;8.55;;;4.20;;
22628;SDS011;11481;53.694;9.910;2022-08-16T15:10:07;5.32;;;3.80;;
22628;SDS011;11481;53.694;9.910;2022-08-16T15:12:49;5.05;;;4.00;;
22628;SDS011;11481;53.694;9.910;2022-08-16T15:15:24;6.30;;;3.95;;
22628;SDS011;11481;53.694;9.910;2022-08-16T15:17:52;6.65;;;4.63;;
22628;SDS011;11481;53.694;9.910;2022-08-16T15:20:24;7.82;;;4.03;;
22628;SDS011;11481;53.694;9.910;2022-08-16T15:22:54;6.13;;;4.38;;
22628;SDS011;11481;53.694;9.910;2022-08-16T15:27:58;6.60;;;4.20;;
22628;SDS011;11481;53.694;9.910;2022-08-16T15:30:30;8.65;;;4.18;;
22628;SDS011;11481;53.694;9.910;2022-08-16T15:33:19;6.85;;;4.20;;
22628;SDS011;11481;53.694;9.910;2022-08-16T15:35:52;8.05;;;3.97;;
22628;SDS011;11481;53.694;9.910;2022-08-16T15:38:23;5.90;;;3.97;;
22628;SDS011;11481;53.694;9.910;2022-08-16T15:44:09;7.07;;;4.35;;
22628;SDS011;11481;53.694;9.910;2022-08-16T15:46:38;8.50;;;4.20;;
22628;SDS011;11481;53.694;9.910;2022-08-16T15:49:27;8.48;;;4.82;;
22628;SDS011;11481;53.694;9.910;2022-08-16T15:52:24;5.38;;;3.97;;
22628;SDS011;11481;53.694;9.910;2022-08-16T15:54:56;6.82;;;4.40;;
22628;SDS011;11481;53.694;9.910;2022-08-16T15:57:26;5.75;;;4.13;;